sensor_id;sensor_type;location;lat;lon;timestamp;pressure;altitude;pressure_sealevel;temperature;humidity
14242;BME280;7205;50.864;12.766;2023-04-30T00:00:54;97991.09;;;11.15;81.06
14242;BME280;7205;50.864;12.766;2023-04-30T00:03:22;97987.31;;;11.10;81.20
14242;BME280;7205;50.864;12.766;2023-04-30T00:05:49;97987.81;;;11.05;81.10
14242;BME280;7205;50.864;12.766;2023-04-30T00:08:16;97985.69;;;11.01;81.47
14242;BME280;7205;50.864;12.766;2023-04-30T00:10:43;97991.47;;;10.96;81.58
14242;BME280;7205;50.864;12.766;2023-04-30T00:13:10;97994.47;;;10.93;82.25
14242;BME280;7205;50.864;12.766;2023-04-30T00:15:38;97999.09;;;10.91;82.12
14242;BME280;7205;50.864;12.766;2023-04-30T00:18:05;98002.72;;;10.90;82.03
14242;BME280;7205;50.864;12.766;2023-04-30T00:20:33;98002.88;;;10.89;82.03
14242;BME280;7205;50.864;12.766;2023-04-30T00:23:00;98005.69;;;10.87;82.25
14242;BME280;7205;50.864;12.766;2023-04-30T00:25:27;98009.34;;;10.86;82.63
14242;BME280;7205;50.864;12.766;2023-04-30T00:27:54;98003.22;;;10.86;83.03
14242;BME280;7205;50.864;12.766;2023-04-30T00:30:21;98005.19;;;10.84;82.62
14242;BME280;7205;50.864;12.766;2023-04-30T00:32:47;98013.47;;;10.81;82.40
14242;BME280;7205;50.864;12.766;2023-04-30T00:35:14;98012.13;;;10.77;82.21
14242;BME280;7205;50.864;12.766;2023-04-30T00:37:43;98007.38;;;10.72;82.39
14242;BME280;7205;50.864;12.766;2023-04-30T00:40:12;98021.06;;;10.68;82.56
14242;BME280;7205;50.864;12.766;2023-04-30T00:42:39;98021.88;;;10.60;82.02
14242;BME280;7205;50.864;12.766;2023-04-30T00:45:07;98020.94;;;10.53;82.69
14242;BME280;7205;50.864;12.766;2023-04-30T00:47:34;98029.31;;;10.49;82.11
14242;BME280;7205;50.864;12.766;2023-04-30T00:50:01;98031.63;;;10.44;83.09
14242;BME280;7205;50.864;12.766;2023-04-30T00:52:28;98024.22;;;10.39;82.80
14242;BME280;7205;50.864;12.766;2023-04-30T00:54:56;98033.28;;;10.37;82.67
14242;BME280;7205;50.864;12.766;2023-04-30T00:57:24;98033.78;;;10.32;82.94
14242;BME280;7205;50.864;12.766;2023-04-30T00:59:52;98031.97;;;10.25;82.95
14242;BME280;7205;50.864;12.766;2023-04-30T01:02:20;98033.09;;;10.14;83.01
14242;BME280;7205;50.864;12.766;2023-04-30T01:04:47;98038.50;;;10.04;82.33
14242;BME280;7205;50.864;12.766;2023-04-30T01:07:14;98036.16;;;9.93;82.66
14242;BME280;7205;50.864;12.766;2023-04-30T01:09:41;98047.00;;;9.82;83.28
14242;BME280;7205;50.864;12.766;2023-04-30T01:12:16;98047.44;;;9.70;82.71
14242;BME280;7205;50.864;12.766;2023-04-30T01:14:53;98048.06;;;9.56;83.17
14242;BME280;7205;50.864;12.766;2023-04-30T01:17:27;98051.97;;;9.44;83.22
14242;BME280;7205;50.864;12.766;2023-04-30T01:19:56;98054.72;;;9.34;83.62
14242;BME280;7205;50.864;12.766;2023-04-30T01:22:35;98055.97;;;9.22;83.34
14242;BME280;7205;50.864;12.766;2023-04-30T01:25:13;98063.16;;;9.12;83.54
14242;BME280;7205;50.864;12.766;2023-04-30T01:28:05;98067.72;;;9.02;83.95
14242;BME280;7205;50.864;12.766;2023-04-30T01:30:35;98072.25;;;8.92;84.56
14242;BME280;7205;50.864;12.766;2023-04-30T01:33:02;98074.00;;;8.83;84.58
14242;BME280;7205;50.864;12.766;2023-04-30T01:36:07;98070.47;;;8.75;84.42
14242;BME280;7205;50.864;12.766;2023-04-30T01:38:52;98074.84;;;8.66;84.75
14242;BME280;7205;50.864;12.766;2023-04-30T01:41:37;98081.00;;;8.57;85.13
14242;BME280;7205;50.864;12.766;2023-04-30T01:44:16;98084.41;;;8.50;84.48
14242;BME280;7205;50.864;12.766;2023-04-30T01:47:03;98086.13;;;8.41;84.60
14242;BME280;7205;50.864;12.766;2023-04-30T01:49:41;98095.06;;;8.31;85.29
14242;BME280;7205;50.864;12.766;2023-04-30T01:52:17;98094.84;;;8.24;85.10
14242;BME280;7205;50.864;12.766;2023-04-30T01:54:48;98105.94;;;8.18;85.02
14242;BME280;7205;50.864;12.766;2023-04-30T01:57:21;98102.78;;;8.15;84.83
14242;BME280;7205;50.864;12.766;2023-04-30T01:59:52;98111.94;;;8.11;84.90
14242;BME280;7205;50.864;12.766;2023-04-30T02:02:19;98110.59;;;8.07;84.98
14242;BME280;7205;50.864;12.766;2023-04-30T02:04:46;98108.38;;;8.02;84.83
14242;BME280;7205;50.864;12.766;2023-04-30T02:07:19;98119.34;;;7.98;84.68
14242;BME280;7205;50.864;12.766;2023-04-30T02:09:48;98118.97;;;7.93;84.84
14242;BME280;7205;50.864;12.766;2023-04-30T02:12:15;98125.50;;;7.89;84.76
14242;BME280;7205;50.864;12.766;2023-04-30T02:14:42;98124.28;;;7.83;84.93
14242;BME280;7205;50.864;12.766;2023-04-30T02:17:10;98131.09;;;7.76;84.86
14242;BME280;7205;50.864;12.766;2023-04-30T02:19:37;98130.84;;;7.70;84.90
14242;BME280;7205;50.864;12.766;2023-04-30T02:22:04;98136.53;;;7.65;85.39
14242;BME280;7205;50.864;12.766;2023-04-30T02:24:30;98132.84;;;7.58;85.18
14242;BME280;7205;50.864;12.766;2023-04-30T02:26:57;98130.50;;;7.55;85.38
14242;BME280;7205;50.864;12.766;2023-04-30T02:29:24;98137.16;;;7.49;85.54
14242;BME280;7205;50.864;12.766;2023-04-30T02:31:51;98135.63;;;7.47;85.57
14242;BME280;7205;50.864;12.766;2023-04-30T02:34:19;98139.81;;;7.40;85.60
14242;BME280;7205;50.864;12.766;2023-04-30T02:36:46;98147.81;;;7.38;85.67
14242;BME280;7205;50.864;12.766;2023-04-30T02:39:12;98147.56;;;7.32;85.47
14242;BME280;7205;50.864;12.766;2023-04-30T02:41:39;98144.53;;;7.27;85.56
14242;BME280;7205;50.864;12.766;2023-04-30T02:44:06;98150.22;;;7.22;85.51
14242;BME280;7205;50.864;12.766;2023-04-30T02:46:33;98152.44;;;7.17;86.04
14242;BME280;7205;50.864;12.766;2023-04-30T02:49:00;98153.69;;;7.13;85.83
14242;BME280;7205;50.864;12.766;2023-04-30T02:51:28;98168.78;;;7.11;85.74
14242;BME280;7205;50.864;12.766;2023-04-30T02:53:55;98163.50;;;7.02;85.89
14242;BME280;7205;50.864;12.766;2023-04-30T02:56:22;98163.94;;;6.97;85.84
14242;BME280;7205;50.864;12.766;2023-04-30T02:58:49;98171.81;;;6.97;86.08
14242;BME280;7205;50.864;12.766;2023-04-30T03:01:16;98165.06;;;6.95;86.14
14242;BME280;7205;50.864;12.766;2023-04-30T03:03:42;98172.25;;;6.93;86.27
14242;BME280;7205;50.864;12.766;2023-04-30T03:06:09;98170.84;;;6.89;86.23
14242;BME280;7205;50.864;12.766;2023-04-30T03:08:37;98167.66;;;6.85;86.32
14242;BME280;7205;50.864;12.766;2023-04-30T03:11:04;98169.75;;;6.82;86.32
14242;BME280;7205;50.864;12.766;2023-04-30T03:13:31;98175.28;;;6.79;86.50
14242;BME280;7205;50.864;12.766;2023-04-30T03:15:58;98174.72;;;6.75;86.46
14242;BME280;7205;50.864;12.766;2023-04-30T03:18:25;98174.16;;;6.72;86.88
14242;BME280;7205;50.864;12.766;2023-04-30T03:20:52;98176.22;;;6.68;86.55
14242;BME280;7205;50.864;12.766;2023-04-30T03:23:19;98178.19;;;6.66;86.59
14242;BME280;7205;50.864;12.766;2023-04-30T03:25:47;98174.03;;;6.64;86.97
14242;BME280;7205;50.864;12.766;2023-04-30T03:28:14;98175.00;;;6.63;87.12
14242;BME280;7205;50.864;12.766;2023-04-30T03:30:41;98176.09;;;6.60;87.03
14242;BME280;7205;50.864;12.766;2023-04-30T03:33:08;98179.69;;;6.59;86.95
14242;BME280;7205;50.864;12.766;2023-04-30T03:35:35;98180.66;;;6.58;87.21
14242;BME280;7205;50.864;12.766;2023-04-30T03:38:02;98187.72;;;6.58;87.65
14242;BME280;7205;50.864;12.766;2023-04-30T03:40:29;98187.16;;;6.54;87.38
14242;BME280;7205;50.864;12.766;2023-04-30T03:42:57;98182.75;;;6.55;87.38
14242;BME280;7205;50.864;12.766;2023-04-30T03:45:24;98191.41;;;6.55;87.90
14242;BME280;7205;50.864;12.766;2023-04-30T03:47:51;98194.31;;;6.52;87.47
14242;BME280;7205;50.864;12.766;2023-04-30T03:50:18;98191.56;;;6.54;87.92
14242;BME280;7205;50.864;12.766;2023-04-30T03:52:45;98196.66;;;6.55;88.03
14242;BME280;7205;50.864;12.766;2023-04-30T03:55:14;98200.69;;;6.59;88.38
14242;BME280;7205;50.864;12.766;2023-04-30T03:57:41;98202.06;;;6.63;88.40
14242;BME280;7205;50.864;12.766;2023-04-30T04:00:11;98206.78;;;6.69;89.01
14242;BME280;7205;50.864;12.766;2023-04-30T04:02:45;98207.59;;;6.79;89.46
14242;BME280;7205;50.864;12.766;2023-04-30T04:05:12;98220.72;;;6.89;89.60
14242;BME280;7205;50.864;12.766;2023-04-30T04:07:39;98216.31;;;6.99;90.10
14242;BME280;7205;50.864;12.766;2023-04-30T04:10:07;98216.28;;;7.08;90.15
14242;BME280;7205;50.864;12.766;2023-04-30T04:12:35;98227.34;;;7.21;90.57
14242;BME280;7205;50.864;12.766;2023-04-30T04:15:01;98227.19;;;7.32;90.40
14242;BME280;7205;50.864;12.766;2023-04-30T04:17:30;98231.47;;;7.43;90.26
14242;BME280;7205;50.864;12.766;2023-04-30T04:19:57;98233.22;;;7.52;89.95
14242;BME280;7205;50.864;12.766;2023-04-30T04:22:24;98234.34;;;7.59;89.37
14242;BME280;7205;50.864;12.766;2023-04-30T04:24:52;98232.94;;;7.64;89.14
14242;BME280;7205;50.864;12.766;2023-04-30T04:27:20;98237.75;;;7.69;88.80
14242;BME280;7205;50.864;12.766;2023-04-30T04:29:48;98241.09;;;7.71;88.66
14242;BME280;7205;50.864;12.766;2023-04-30T04:32:15;98237.63;;;7.71;88.11
14242;BME280;7205;50.864;12.766;2023-04-30T04:34:44;98245.78;;;7.68;87.35
14242;BME280;7205;50.864;12.766;2023-04-30T04:37:11;98253.38;;;7.71;87.69
14242;BME280;7205;50.864;12.766;2023-04-30T04:39:38;98257.56;;;7.73;88.17
14242;BME280;7205;50.864;12.766;2023-04-30T04:42:06;98258.25;;;7.75;87.54
14242;BME280;7205;50.864;12.766;2023-04-30T04:44:34;98250.22;;;7.77;87.49
14242;BME280;7205;50.864;12.766;2023-04-30T04:47:00;98252.97;;;7.75;86.70
14242;BME280;7205;50.864;12.766;2023-04-30T04:49:29;98248.81;;;7.73;86.66
14242;BME280;7205;50.864;12.766;2023-04-30T04:51:58;98247.44;;;7.68;86.44
14242;BME280;7205;50.864;12.766;2023-04-30T04:54:26;98255.75;;;7.64;86.19
14242;BME280;7205;50.864;12.766;2023-04-30T04:56:53;98249.94;;;7.60;86.07
14242;BME280;7205;50.864;12.766;2023-04-30T04:59:21;98247.75;;;7.56;85.62
14242;BME280;7205;50.864;12.766;2023-04-30T05:01:48;98259.25;;;7.55;86.07
14242;BME280;7205;50.864;12.766;2023-04-30T05:04:14;98256.88;;;7.52;85.92
14242;BME280;7205;50.864;12.766;2023-04-30T05:06:44;98255.53;;;7.48;85.77
14242;BME280;7205;50.864;12.766;2023-04-30T05:09:12;98263.41;;;7.48;85.60
14242;BME280;7205;50.864;12.766;2023-04-30T05:11:40;98267.69;;;7.49;86.17
14242;BME280;7205;50.864;12.766;2023-04-30T05:14:08;98269.22;;;7.51;86.64
14242;BME280;7205;50.864;12.766;2023-04-30T05:16:35;98268.94;;;7.54;86.33
14242;BME280;7205;50.864;12.766;2023-04-30T05:19:01;98268.63;;;7.57;86.89
14242;BME280;7205;50.864;12.766;2023-04-30T05:21:28;98271.66;;;7.62;86.44
14242;BME280;7205;50.864;12.766;2023-04-30T05:23:56;98274.41;;;7.71;86.93
14242;BME280;7205;50.864;12.766;2023-04-30T05:26:24;98286.72;;;7.80;87.33
14242;BME280;7205;50.864;12.766;2023-04-30T05:28:51;98290.16;;;7.90;87.12
14242;BME280;7205;50.864;12.766;2023-04-30T05:31:18;98297.19;;;7.99;86.95
14242;BME280;7205;50.864;12.766;2023-04-30T05:33:45;98285.66;;;8.09;87.49
14242;BME280;7205;50.864;12.766;2023-04-30T05:36:12;98289.91;;;8.20;86.55
14242;BME280;7205;50.864;12.766;2023-04-30T05:38:39;98290.06;;;8.28;86.16
14242;BME280;7205;50.864;12.766;2023-04-30T05:41:06;98285.19;;;8.33;85.35
14242;BME280;7205;50.864;12.766;2023-04-30T05:43:34;98288.22;;;8.38;85.55
14242;BME280;7205;50.864;12.766;2023-04-30T05:46:01;98292.91;;;8.44;85.03
14242;BME280;7205;50.864;12.766;2023-04-30T05:48:29;98295.63;;;8.52;84.87
14242;BME280;7205;50.864;12.766;2023-04-30T05:50:56;98300.16;;;8.59;84.78
14242;BME280;7205;50.864;12.766;2023-04-30T05:53:22;98298.44;;;8.68;83.85
14242;BME280;7205;50.864;12.766;2023-04-30T05:55:49;98294.25;;;8.75;83.89
14242;BME280;7205;50.864;12.766;2023-04-30T05:58:16;98290.88;;;8.82;83.27
14242;BME280;7205;50.864;12.766;2023-04-30T06:00:47;98287.06;;;8.95;83.42
14242;BME280;7205;50.864;12.766;2023-04-30T06:03:14;98281.44;;;9.07;83.04
14242;BME280;7205;50.864;12.766;2023-04-30T06:05:41;98288.41;;;9.16;81.98
14242;BME280;7205;50.864;12.766;2023-04-30T06:08:08;98283.53;;;9.21;80.50
14242;BME280;7205;50.864;12.766;2023-04-30T06:10:35;98281.81;;;9.30;80.78
14242;BME280;7205;50.864;12.766;2023-04-30T06:13:03;98279.09;;;9.39;79.99
14242;BME280;7205;50.864;12.766;2023-04-30T06:15:30;98276.69;;;9.46;78.93
14242;BME280;7205;50.864;12.766;2023-04-30T06:17:58;98285.41;;;9.46;78.64
14242;BME280;7205;50.864;12.766;2023-04-30T06:20:25;98286.84;;;9.41;77.96
14242;BME280;7205;50.864;12.766;2023-04-30T06:22:52;98287.44;;;9.35;76.74
14242;BME280;7205;50.864;12.766;2023-04-30T06:25:19;98281.13;;;9.28;76.78
14242;BME280;7205;50.864;12.766;2023-04-30T06:27:46;98287.69;;;9.24;76.62
14242;BME280;7205;50.864;12.766;2023-04-30T06:30:13;98287.00;;;9.22;76.70
14242;BME280;7205;50.864;12.766;2023-04-30T06:32:40;98283.53;;;9.21;76.80
14242;BME280;7205;50.864;12.766;2023-04-30T06:35:09;98286.84;;;9.23;76.74
14242;BME280;7205;50.864;12.766;2023-04-30T06:37:35;98275.72;;;9.29;75.92
14242;BME280;7205;50.864;12.766;2023-04-30T06:40:03;98284.50;;;9.38;76.78
14242;BME280;7205;50.864;12.766;2023-04-30T06:42:31;98279.53;;;9.52;76.73
14242;BME280;7205;50.864;12.766;2023-04-30T06:44:59;98283.44;;;9.66;77.28
14242;BME280;7205;50.864;12.766;2023-04-30T06:47:26;98284.53;;;9.81;76.18
14242;BME280;7205;50.864;12.766;2023-04-30T06:49:53;98277.03;;;9.94;76.30
14242;BME280;7205;50.864;12.766;2023-04-30T06:52:21;98281.66;;;10.00;75.20
14242;BME280;7205;50.864;12.766;2023-04-30T06:54:48;98284.66;;;10.05;73.94
14242;BME280;7205;50.864;12.766;2023-04-30T06:57:15;98282.72;;;10.07;73.88
14242;BME280;7205;50.864;12.766;2023-04-30T06:59:42;98276.03;;;10.13;73.75
14242;BME280;7205;50.864;12.766;2023-04-30T07:02:09;98280.66;;;10.19;73.20
14242;BME280;7205;50.864;12.766;2023-04-30T07:04:36;98288.25;;;10.22;72.55
14242;BME280;7205;50.864;12.766;2023-04-30T07:07:03;98287.44;;;10.21;72.04
14242;BME280;7205;50.864;12.766;2023-04-30T07:09:33;98293.09;;;10.26;72.13
14242;BME280;7205;50.864;12.766;2023-04-30T07:12:01;98291.47;;;10.33;72.07
14242;BME280;7205;50.864;12.766;2023-04-30T07:14:28;98292.97;;;10.36;71.67
14242;BME280;7205;50.864;12.766;2023-04-30T07:16:55;98290.84;;;10.39;71.19
14242;BME280;7205;50.864;12.766;2023-04-30T07:19:22;98288.22;;;10.47;70.98
14242;BME280;7205;50.864;12.766;2023-04-30T07:21:51;98291.41;;;10.59;71.22
14242;BME280;7205;50.864;12.766;2023-04-30T07:24:18;98294.59;;;10.70;70.77
14242;BME280;7205;50.864;12.766;2023-04-30T07:26:46;98300.72;;;10.79;70.27
14242;BME280;7205;50.864;12.766;2023-04-30T07:29:13;98281.91;;;10.82;68.93
14242;BME280;7205;50.864;12.766;2023-04-30T07:31:40;98284.25;;;10.85;68.95
14242;BME280;7205;50.864;12.766;2023-04-30T07:34:06;98287.41;;;10.88;68.66
14242;BME280;7205;50.864;12.766;2023-04-30T07:36:34;98286.25;;;10.91;68.54
14242;BME280;7205;50.864;12.766;2023-04-30T07:39:03;98293.50;;;10.97;68.75
14242;BME280;7205;50.864;12.766;2023-04-30T07:41:30;98303.47;;;11.03;68.14
14242;BME280;7205;50.864;12.766;2023-04-30T07:43:58;98287.09;;;11.07;67.84
14242;BME280;7205;50.864;12.766;2023-04-30T07:46:25;98295.53;;;11.19;67.95
14242;BME280;7205;50.864;12.766;2023-04-30T07:48:52;98295.41;;;11.28;67.25
14242;BME280;7205;50.864;12.766;2023-04-30T07:51:18;98300.22;;;11.33;66.23
14242;BME280;7205;50.864;12.766;2023-04-30T07:53:45;98301.22;;;11.40;65.98
14242;BME280;7205;50.864;12.766;2023-04-30T07:56:12;98308.66;;;11.53;66.28
14242;BME280;7205;50.864;12.766;2023-04-30T07:58:39;98304.56;;;11.66;66.50
14242;BME280;7205;50.864;12.766;2023-04-30T08:01:07;98308.00;;;11.83;66.06
14242;BME280;7205;50.864;12.766;2023-04-30T08:03:34;98304.03;;;11.95;65.23
14242;BME280;7205;50.864;12.766;2023-04-30T08:06:01;98294.75;;;12.07;64.60
14242;BME280;7205;50.864;12.766;2023-04-30T08:08:27;98298.22;;;12.15;64.01
14242;BME280;7205;50.864;12.766;2023-04-30T08:10:54;98300.69;;;12.25;63.98
14242;BME280;7205;50.864;12.766;2023-04-30T08:13:21;98313.88;;;12.33;62.93
14242;BME280;7205;50.864;12.766;2023-04-30T08:15:48;98312.25;;;12.32;62.24
14242;BME280;7205;50.864;12.766;2023-04-30T08:18:16;98310.25;;;12.34;62.30
14242;BME280;7205;50.864;12.766;2023-04-30T08:20:43;98312.56;;;12.37;62.23
14242;BME280;7205;50.864;12.766;2023-04-30T08:23:09;98316.69;;;12.39;61.42
14242;BME280;7205;50.864;12.766;2023-04-30T08:25:36;98314.53;;;12.43;61.78
14242;BME280;7205;50.864;12.766;2023-04-30T08:28:03;98313.50;;;12.52;62.04
14242;BME280;7205;50.864;12.766;2023-04-30T08:30:30;98305.00;;;12.64;62.05
14242;BME280;7205;50.864;12.766;2023-04-30T08:32:57;98307.97;;;12.70;60.88
14242;BME280;7205;50.864;12.766;2023-04-30T08:35:25;98313.78;;;12.65;59.85
14242;BME280;7205;50.864;12.766;2023-04-30T08:37:54;98323.56;;;12.64;59.94
14242;BME280;7205;50.864;12.766;2023-04-30T08:40:20;98321.22;;;12.70;60.38
14242;BME280;7205;50.864;12.766;2023-04-30T08:42:52;98323.69;;;12.79;60.50
14242;BME280;7205;50.864;12.766;2023-04-30T08:45:19;98325.94;;;12.90;60.23
14242;BME280;7205;50.864;12.766;2023-04-30T08:47:48;98326.25;;;13.03;60.14
14242;BME280;7205;50.864;12.766;2023-04-30T08:50:15;98320.88;;;13.11;59.15
14242;BME280;7205;50.864;12.766;2023-04-30T08:52:43;98325.88;;;13.14;58.44
14242;BME280;7205;50.864;12.766;2023-04-30T08:55:10;98327.19;;;13.10;57.65
14242;BME280;7205;50.864;12.766;2023-04-30T08:57:37;98321.25;;;13.08;57.47
14242;BME280;7205;50.864;12.766;2023-04-30T09:00:05;98325.34;;;13.19;58.03
14242;BME280;7205;50.864;12.766;2023-04-30T09:02:32;98317.44;;;13.33;57.84
14242;BME280;7205;50.864;12.766;2023-04-30T09:05:00;98318.16;;;13.50;57.00
14242;BME280;7205;50.864;12.766;2023-04-30T09:07:26;98315.91;;;13.61;56.21
14242;BME280;7205;50.864;12.766;2023-04-30T09:09:58;98312.03;;;13.72;55.58
14242;BME280;7205;50.864;12.766;2023-04-30T09:12:25;98307.94;;;13.84;55.40
14242;BME280;7205;50.864;12.766;2023-04-30T09:14:58;98314.66;;;13.95;54.61
14242;BME280;7205;50.864;12.766;2023-04-30T09:17:26;98308.72;;;14.07;54.91
14242;BME280;7205;50.864;12.766;2023-04-30T09:19:53;98313.44;;;14.20;54.23
14242;BME280;7205;50.864;12.766;2023-04-30T09:22:21;98309.56;;;14.22;53.14
14242;BME280;7205;50.864;12.766;2023-04-30T09:24:49;98312.78;;;14.18;53.10
14242;BME280;7205;50.864;12.766;2023-04-30T09:27:21;98313.16;;;14.15;53.23
14242;BME280;7205;50.864;12.766;2023-04-30T09:29:48;98306.25;;;14.20;53.00
14242;BME280;7205;50.864;12.766;2023-04-30T09:32:15;98308.25;;;14.26;52.91
14242;BME280;7205;50.864;12.766;2023-04-30T09:34:42;98306.84;;;14.30;51.63
14242;BME280;7205;50.864;12.766;2023-04-30T09:37:10;98311.25;;;14.23;50.83
14242;BME280;7205;50.864;12.766;2023-04-30T09:39:47;98304.91;;;14.10;50.76
14242;BME280;7205;50.864;12.766;2023-04-30T09:42:16;98312.72;;;13.88;50.89
14242;BME280;7205;50.864;12.766;2023-04-30T09:44:45;98307.91;;;13.69;51.10
14242;BME280;7205;50.864;12.766;2023-04-30T09:47:14;98313.44;;;13.60;51.95
14242;BME280;7205;50.864;12.766;2023-04-30T09:49:42;98312.47;;;13.61;52.42
14242;BME280;7205;50.864;12.766;2023-04-30T09:52:10;98307.38;;;13.74;53.29
14242;BME280;7205;50.864;12.766;2023-04-30T09:54:37;98309.53;;;13.93;52.71
14242;BME280;7205;50.864;12.766;2023-04-30T09:57:05;98302.16;;;14.03;51.29
14242;BME280;7205;50.864;12.766;2023-04-30T09:59:35;98295.16;;;14.02;50.92
14242;BME280;7205;50.864;12.766;2023-04-30T10:02:06;98303.22;;;13.94;50.82
14242;BME280;7205;50.864;12.766;2023-04-30T10:04:35;98295.91;;;13.73;50.47
14242;BME280;7205;50.864;12.766;2023-04-30T10:07:05;98304.88;;;13.50;51.19
14242;BME280;7205;50.864;12.766;2023-04-30T10:09:38;98300.44;;;13.20;51.13
14242;BME280;7205;50.864;12.766;2023-04-30T10:12:09;98291.97;;;12.94;51.70
14242;BME280;7205;50.864;12.766;2023-04-30T10:14:39;98288.41;;;12.79;52.17
14242;BME280;7205;50.864;12.766;2023-04-30T10:17:13;98294.91;;;12.68;51.46
14242;BME280;7205;50.864;12.766;2023-04-30T10:19:45;98290.66;;;12.59;51.51
14242;BME280;7205;50.864;12.766;2023-04-30T10:22:12;98294.97;;;12.52;52.10
14242;BME280;7205;50.864;12.766;2023-04-30T10:24:40;98281.91;;;12.50;52.59
14242;BME280;7205;50.864;12.766;2023-04-30T10:27:07;98287.19;;;12.50;52.91
14242;BME280;7205;50.864;12.766;2023-04-30T10:29:34;98281.91;;;12.50;53.09
14242;BME280;7205;50.864;12.766;2023-04-30T10:32:01;98281.91;;;12.50;53.30
14242;BME280;7205;50.864;12.766;2023-04-30T10:34:38;98272.28;;;12.49;53.76
14242;BME280;7205;50.864;12.766;2023-04-30T10:37:15;98270.47;;;12.50;53.72
14242;BME280;7205;50.864;12.766;2023-04-30T10:39:46;98277.44;;;12.43;53.56
14242;BME280;7205;50.864;12.766;2023-04-30T10:42:13;98262.59;;;12.34;53.76
14242;BME280;7205;50.864;12.766;2023-04-30T10:44:40;98259.63;;;12.29;54.40
14242;BME280;7205;50.864;12.766;2023-04-30T10:47:07;98274.69;;;12.28;54.21
14242;BME280;7205;50.864;12.766;2023-04-30T10:49:35;98271.53;;;12.25;53.60
14242;BME280;7205;50.864;12.766;2023-04-30T10:52:03;98269.41;;;12.20;52.99
14242;BME280;7205;50.864;12.766;2023-04-30T10:54:31;98269.72;;;12.17;52.87
14242;BME280;7205;50.864;12.766;2023-04-30T10:57:11;98262.44;;;12.19;53.47
14242;BME280;7205;50.864;12.766;2023-04-30T10:59:41;98258.47;;;12.23;53.38
14242;BME280;7205;50.864;12.766;2023-04-30T11:02:09;98257.97;;;12.28;53.47
14242;BME280;7205;50.864;12.766;2023-04-30T11:05:10;98255.31;;;12.28;53.32
14242;BME280;7205;50.864;12.766;2023-04-30T11:07:46;98263.94;;;12.22;52.90
14242;BME280;7205;50.864;12.766;2023-04-30T11:10:14;98258.81;;;12.12;52.46
14242;BME280;7205;50.864;12.766;2023-04-30T11:12:46;98257.22;;;12.03;52.80
14242;BME280;7205;50.864;12.766;2023-04-30T11:15:14;98250.28;;;11.94;52.59
14242;BME280;7205;50.864;12.766;2023-04-30T11:17:43;98253.44;;;11.90;53.66
14242;BME280;7205;50.864;12.766;2023-04-30T11:20:13;98248.97;;;11.90;53.53
14242;BME280;7205;50.864;12.766;2023-04-30T11:22:40;98245.16;;;11.93;53.83
14242;BME280;7205;50.864;12.766;2023-04-30T11:25:08;98238.88;;;11.94;53.86
14242;BME280;7205;50.864;12.766;2023-04-30T11:27:40;98242.50;;;11.93;53.52
14242;BME280;7205;50.864;12.766;2023-04-30T11:30:10;98242.50;;;11.93;53.20
14242;BME280;7205;50.864;12.766;2023-04-30T11:32:38;98240.53;;;11.95;53.26
14242;BME280;7205;50.864;12.766;2023-04-30T11:35:06;98239.66;;;12.02;53.89
14242;BME280;7205;50.864;12.766;2023-04-30T11:37:35;98236.19;;;12.10;53.78
14242;BME280;7205;50.864;12.766;2023-04-30T11:40:04;98230.19;;;12.16;54.03
14242;BME280;7205;50.864;12.766;2023-04-30T11:42:32;98231.34;;;12.21;53.58
14242;BME280;7205;50.864;12.766;2023-04-30T11:45:07;98235.81;;;12.21;52.96
14242;BME280;7205;50.864;12.766;2023-04-30T11:47:42;98234.84;;;12.14;52.41
14242;BME280;7205;50.864;12.766;2023-04-30T11:50:11;98225.75;;;12.08;51.75
14242;BME280;7205;50.864;12.766;2023-04-30T11:52:39;98221.44;;;12.07;51.98
14242;BME280;7205;50.864;12.766;2023-04-30T11:55:12;98218.00;;;12.07;52.66
14242;BME280;7205;50.864;12.766;2023-04-30T11:57:41;98219.63;;;12.08;53.21
14242;BME280;7205;50.864;12.766;2023-04-30T12:00:13;98215.00;;;12.10;53.05
14242;BME280;7205;50.864;12.766;2023-04-30T12:02:41;98216.94;;;12.16;53.59
14242;BME280;7205;50.864;12.766;2023-04-30T12:05:12;98216.28;;;12.22;52.93
14242;BME280;7205;50.864;12.766;2023-04-30T12:07:46;98228.00;;;12.27;52.67
14242;BME280;7205;50.864;12.766;2023-04-30T12:10:13;98219.56;;;12.32;51.87
14242;BME280;7205;50.864;12.766;2023-04-30T12:12:42;98215.72;;;12.34;51.47
14242;BME280;7205;50.864;12.766;2023-04-30T12:15:14;98226.16;;;12.36;51.37
14242;BME280;7205;50.864;12.766;2023-04-30T12:17:42;98218.03;;;12.37;50.99
14242;BME280;7205;50.864;12.766;2023-04-30T12:20:10;98228.47;;;12.39;51.37
14242;BME280;7205;50.864;12.766;2023-04-30T12:22:38;98227.28;;;12.41;50.73
14242;BME280;7205;50.864;12.766;2023-04-30T12:25:10;98224.13;;;12.46;50.23
14242;BME280;7205;50.864;12.766;2023-04-30T12:27:39;98215.19;;;12.47;49.86
14242;BME280;7205;50.864;12.766;2023-04-30T12:30:07;98212.38;;;12.48;49.75
14242;BME280;7205;50.864;12.766;2023-04-30T12:32:40;98213.03;;;12.50;49.95
14242;BME280;7205;50.864;12.766;2023-04-30T12:35:12;98205.88;;;12.51;49.95
14242;BME280;7205;50.864;12.766;2023-04-30T12:37:43;98206.53;;;12.53;50.23
14242;BME280;7205;50.864;12.766;2023-04-30T12:40:12;98206.19;;;12.56;50.05
14242;BME280;7205;50.864;12.766;2023-04-30T12:42:41;98207.69;;;12.58;50.04
14242;BME280;7205;50.864;12.766;2023-04-30T12:45:09;98207.50;;;12.60;50.07
14242;BME280;7205;50.864;12.766;2023-04-30T12:47:40;98197.09;;;12.58;50.27
14242;BME280;7205;50.864;12.766;2023-04-30T12:50:10;98196.06;;;12.59;50.40
14242;BME280;7205;50.864;12.766;2023-04-30T12:52:38;98192.25;;;12.62;50.61
14242;BME280;7205;50.864;12.766;2023-04-30T12:55:19;98182.66;;;12.61;50.12
14242;BME280;7205;50.864;12.766;2023-04-30T12:58:05;98184.13;;;12.63;50.26
14242;BME280;7205;50.864;12.766;2023-04-30T13:00:46;98185.91;;;12.71;50.39
14242;BME280;7205;50.864;12.766;2023-04-30T13:03:14;98186.19;;;12.76;50.29
14242;BME280;7205;50.864;12.766;2023-04-30T13:05:45;98176.72;;;12.82;50.25
14242;BME280;7205;50.864;12.766;2023-04-30T13:08:13;98174.19;;;12.88;50.35
14242;BME280;7205;50.864;12.766;2023-04-30T13:10:41;98177.97;;;12.94;50.20
14242;BME280;7205;50.864;12.766;2023-04-30T13:13:09;98169.31;;;13.00;49.68